PWSweather.com
Personal Weather Stations
Station Observations
MACKBIG
Historic Main Street, Unionville, ON L3R6A5

Historic Main StreetUnionville, ON L3R6A5

Lat: 43.875506, Lon: -79.312903

Elevation: 590

Station Type: Davis VP2 + 6163

http://www.mackweather.com

Latest ConditionsUpdated 9:30:07 PM EDT Tuesday, Apr 21, 2015
Currently Today's Max Today's Min Today's Average
Temperature 41.8°F5.4°C 52.9°F11.6°C 41.8°F5.4°C 46.6°F8.1°C
Dew Point 37.7°F3.2°C 46.6°F8.1°C 34.8°F1.6°C 38.7°F3.7°C
Winds Calm Calm 18.0 mph SW29.0 kmh SW - 4.5 mph 7.2 kmh
Wind Gusts -- 32.0 mph51.5 kmh - -
Humidity 85% 86% 56% 74%
Pressure 29.58 in1001.7 mb 29.58 in1001.7 mb 29.44 in997.0 mb -
Precipitation - 0.10 in2.5 mm - -
Hour Temp Dew Point Humidity Winds Wind Gusts Pressure Precip Precip Rate Daily Precip Total
09:30 PM 41.8°F5.4°C 37.7°F3.2°C 85% Calm Calm -- 29.58 in1001.7 mb 0.00 in0.0 mm 0.00 in0.0 mm 0.10 in2.5 mm
09:20 PM 42.0°F5.6°C 37.9°F3.3°C 85% 1.0 mph SW1.6 kmh SW 3.0 mph4.8 kmh 29.58 in1001.7 mb 0.00 in0.0 mm 0.00 in0.0 mm 0.10 in2.5 mm
09:10 PM 42.3°F5.7°C 38.1°F3.4°C 85% Calm Calm -- 29.57 in1001.4 mb 0.00 in0.0 mm 0.00 in0.0 mm 0.10 in2.5 mm
09:00 PM 42.4°F5.8°C 38.2°F3.4°C 85% Calm Calm -- 29.57 in1001.4 mb 0.00 in0.0 mm 0.00 in0.0 mm 0.10 in2.5 mm
08:50 PM 42.6°F5.9°C 38.4°F3.6°C 85% Calm Calm -- 29.57 in1001.4 mb 0.00 in0.0 mm 0.00 in0.0 mm 0.10 in2.5 mm
08:40 PM 42.7°F5.9°C 38.5°F3.6°C 85% 3.0 mph WSW4.8 kmh WSW 5.0 mph8.0 kmh 29.57 in1001.4 mb 0.01 in0.3 mm 0.06 in1.5 mm 0.10 in2.5 mm
08:30 PM 43.0°F6.1°C 39.1°F3.9°C 86% 2.0 mph SW3.2 kmh SW 3.0 mph4.8 kmh 29.57 in1001.4 mb 0.00 in0.0 mm 0.00 in0.0 mm 0.09 in2.3 mm
08:20 PM 42.8°F6.0°C 38.6°F3.7°C 85% 1.0 mph WSW1.6 kmh WSW 3.0 mph4.8 kmh 29.57 in1001.4 mb 0.00 in0.0 mm 0.00 in0.0 mm 0.09 in2.3 mm
08:10 PM 42.8°F6.0°C 38.6°F3.7°C 85% Calm Calm -- 29.56 in1001.0 mb 0.00 in0.0 mm 0.00 in0.0 mm 0.09 in2.3 mm
08:00 PM 42.7°F5.9°C 38.5°F3.6°C 85% Calm Calm -- 29.56 in1001.0 mb 0.00 in0.0 mm 0.00 in0.0 mm 0.09 in2.3 mm
07:50 PM 42.7°F5.9°C 38.2°F3.4°C 84% 1.0 mph WSW1.6 kmh WSW 3.0 mph4.8 kmh 29.56 in1001.0 mb - 0.00 in0.0 mm 0.09 in2.3 mm
07:40 PM 42.7°F5.9°C 37.9°F3.3°C 83% Calm Calm -- 29.57 in1001.4 mb - 0.00 in0.0 mm 0.09 in2.3 mm
07:30 PM 42.7°F5.9°C 37.6°F3.1°C 82% Calm Calm -- 29.56 in1001.0 mb - 0.01 in0.3 mm 0.09 in2.3 mm
07:20 PM 43.2°F6.2°C 37.4°F3.0°C 80% 2.0 mph WSW3.2 kmh WSW 6.0 mph9.7 kmh 29.57 in1001.4 mb - 0.00 in0.0 mm 0.09 in2.3 mm
07:10 PM 44.3°F6.8°C 37.9°F3.3°C 78% 3.0 mph W4.8 kmh W 6.0 mph9.7 kmh 29.57 in1001.4 mb - 0.03 in0.8 mm 0.09 in2.3 mm
07:00 PM 45.1°F7.3°C 38.0°F3.3°C 76% 7.0 mph SW11.3 kmh SW 16.0 mph25.7 kmh 29.56 in1001.0 mb 0.00 in0.0 mm 0.00 in0.0 mm 0.06 in1.5 mm
06:50 PM 45.9°F7.7°C 38.1°F3.4°C 74% 1.0 mph SW1.6 kmh SW 3.0 mph4.8 kmh 29.54 in1000.3 mb - 0.00 in0.0 mm 0.06 in1.5 mm
06:40 PM 47.4°F8.6°C 38.1°F3.4°C 70% 3.0 mph SW4.8 kmh SW 16.0 mph25.7 kmh 29.54 in1000.3 mb - 0.00 in0.0 mm 0.06 in1.5 mm
06:30 PM 48.9°F9.4°C 37.6°F3.1°C 65% 3.0 mph WNW4.8 kmh WNW 18.0 mph29.0 kmh 29.53 in1000.0 mb - 0.01 in0.3 mm 0.06 in1.5 mm
06:20 PM 49.4°F9.7°C 35.7°F2.1°C 59% 2.0 mph WSW3.2 kmh WSW 5.0 mph8.0 kmh 29.53 in1000.0 mb - 0.00 in0.0 mm 0.05 in1.3 mm
06:10 PM 49.9°F9.9°C 36.1°F2.3°C 59% 5.0 mph W8.0 kmh W 13.0 mph20.9 kmh 29.53 in1000.0 mb - 0.00 in0.0 mm 0.05 in1.3 mm
06:00 PM 50.2°F10.1°C 36.8°F2.7°C 60% 5.0 mph WSW8.0 kmh WSW 12.0 mph19.3 kmh 29.53 in1000.0 mb - 0.00 in0.0 mm 0.05 in1.3 mm
05:50 PM 50.6°F10.3°C 37.2°F2.9°C 60% 9.0 mph WSW14.5 kmh WSW 20.0 mph32.2 kmh 29.52 in999.7 mb - 0.00 in0.0 mm 0.05 in1.3 mm
05:40 PM 50.5°F10.3°C 38.0°F3.3°C 62% 3.0 mph WSW4.8 kmh WSW 8.0 mph12.9 kmh 29.52 in999.7 mb - 0.00 in0.0 mm 0.05 in1.3 mm
05:30 PM 50.1°F10.1°C 38.4°F3.6°C 64% 13.0 mph WSW20.9 kmh WSW 24.0 mph38.6 kmh 29.53 in1000.0 mb - 0.00 in0.0 mm 0.05 in1.3 mm
05:20 PM 50.0°F10.0°C 39.5°F4.2°C 67% 7.0 mph NW11.3 kmh NW 15.0 mph24.1 kmh 29.52 in999.7 mb - 0.00 in0.0 mm 0.05 in1.3 mm
05:10 PM 50.3°F10.2°C 40.5°F4.7°C 69% 7.0 mph W11.3 kmh W 13.0 mph20.9 kmh 29.53 in1000.0 mb - 0.00 in0.0 mm 0.05 in1.3 mm
05:00 PM 49.5°F9.7°C 40.5°F4.7°C 71% 10.0 mph W16.1 kmh W 15.0 mph24.1 kmh 29.52 in999.7 mb - 0.00 in0.0 mm 0.05 in1.3 mm
04:50 PM 49.8°F9.9°C 40.0°F4.4°C 69% 8.0 mph WSW12.9 kmh WSW 13.0 mph20.9 kmh 29.51 in999.3 mb - 0.00 in0.0 mm 0.05 in1.3 mm
04:40 PM 50.5°F10.3°C 39.9°F4.4°C 67% 10.0 mph W16.1 kmh W 20.0 mph32.2 kmh 29.51 in999.3 mb - 0.00 in0.0 mm 0.05 in1.3 mm
04:30 PM 50.3°F10.2°C 40.9°F4.9°C 70% 6.0 mph W9.7 kmh W 13.0 mph20.9 kmh 29.51 in999.3 mb - 0.00 in0.0 mm 0.05 in1.3 mm
04:20 PM 48.9°F9.4°C 39.9°F4.4°C 71% 7.0 mph WSW11.3 kmh WSW 15.0 mph24.1 kmh 29.50 in999.0 mb - 0.00 in0.0 mm 0.05 in1.3 mm
04:10 PM 47.7°F8.7°C 39.1°F3.9°C 72% 5.0 mph W8.0 kmh W 18.0 mph29.0 kmh 29.50 in999.0 mb - 0.00 in0.0 mm 0.05 in1.3 mm
04:00 PM 47.0°F8.3°C 38.8°F3.8°C 73% 8.0 mph WSW12.9 kmh WSW 17.0 mph27.4 kmh 29.50 in999.0 mb - 0.00 in0.0 mm 0.05 in1.3 mm
03:50 PM 46.2°F7.9°C 38.4°F3.6°C 74% 8.0 mph WNW12.9 kmh WNW 20.0 mph32.2 kmh 29.50 in999.0 mb - 0.00 in0.0 mm 0.05 in1.3 mm
03:40 PM 46.4°F8.0°C 38.6°F3.7°C 74% 10.0 mph WNW16.1 kmh WNW 20.0 mph32.2 kmh 29.50 in999.0 mb - 0.00 in0.0 mm 0.05 in1.3 mm
03:30 PM 48.0°F8.9°C 40.1°F4.5°C 74% 12.0 mph WSW19.3 kmh WSW 20.0 mph32.2 kmh 29.50 in999.0 mb - 0.00 in0.0 mm 0.05 in1.3 mm
03:20 PM 48.3°F9.1°C 41.7°F5.4°C 78% 18.0 mph SW29.0 kmh SW 32.0 mph51.5 kmh 29.49 in998.6 mb - 0.00 in0.0 mm 0.05 in1.3 mm
03:10 PM 46.3°F7.9°C 41.1°F5.1°C 82% 3.0 mph SW4.8 kmh SW 5.0 mph8.0 kmh 29.49 in998.6 mb - 0.00 in0.0 mm 0.05 in1.3 mm
03:00 PM 45.0°F7.2°C 39.8°F4.3°C 82% 2.0 mph WSW3.2 kmh WSW 7.0 mph11.3 kmh 29.50 in999.0 mb - 0.00 in0.0 mm 0.05 in1.3 mm
02:50 PM 44.7°F7.1°C 39.9°F4.4°C 83% 2.0 mph WSW3.2 kmh WSW 8.0 mph12.9 kmh 29.50 in999.0 mb - 0.00 in0.0 mm 0.05 in1.3 mm
02:40 PM 44.6°F7.0°C 39.2°F4.0°C 81% 3.0 mph SW4.8 kmh SW 3.0 mph4.8 kmh 29.50 in999.0 mb - 0.00 in0.0 mm 0.05 in1.3 mm
02:30 PM 45.9°F7.7°C 39.1°F3.9°C 77% 5.0 mph W8.0 kmh W 7.0 mph11.3 kmh 29.50 in999.0 mb - 0.01 in0.3 mm 0.05 in1.3 mm
02:20 PM 47.1°F8.4°C 41.6°F5.3°C 81% 12.0 mph SW19.3 kmh SW 21.0 mph33.8 kmh 29.49 in998.6 mb - 0.00 in0.0 mm 0.04 in1.0 mm
02:10 PM 46.4°F8.0°C 41.8°F5.4°C 84% 7.0 mph WSW11.3 kmh WSW 12.0 mph19.3 kmh 29.49 in998.6 mb - 0.00 in0.0 mm 0.04 in1.0 mm
02:00 PM 46.3°F7.9°C 42.3°F5.7°C 86% 5.0 mph SW8.0 kmh SW 10.0 mph16.1 kmh 29.49 in998.6 mb - 0.00 in0.0 mm 0.04 in1.0 mm
01:50 PM 43.7°F6.5°C 39.5°F4.2°C 85% 3.0 mph WSW4.8 kmh WSW 5.0 mph8.0 kmh 29.49 in998.6 mb - 0.00 in0.0 mm 0.04 in1.0 mm
01:40 PM 42.6°F5.9°C 37.2°F2.9°C 81% 2.0 mph WSW3.2 kmh WSW 8.0 mph12.9 kmh 29.50 in999.0 mb - 0.01 in0.3 mm 0.04 in1.0 mm
01:30 PM 43.4°F6.3°C 37.0°F2.8°C 78% 3.0 mph WNW4.8 kmh WNW 14.0 mph22.5 kmh 29.52 in999.7 mb - 0.02 in0.5 mm 0.03 in0.8 mm
01:20 PM 45.1°F7.3°C 37.3°F2.9°C 74% 13.0 mph SSW20.9 kmh SSW 18.0 mph29.0 kmh 29.51 in999.3 mb - 0.00 in0.0 mm 0.02 in0.5 mm
01:10 PM 46.7°F8.2°C 38.1°F3.4°C 72% 13.0 mph SW20.9 kmh SW 21.0 mph33.8 kmh 29.50 in999.0 mb - 0.00 in0.0 mm 0.02 in0.5 mm
01:00 PM 47.0°F8.3°C 38.4°F3.6°C 72% 1.0 mph NW1.6 kmh NW 7.0 mph11.3 kmh 29.49 in998.6 mb - 0.00 in0.0 mm 0.02 in0.5 mm
12:50 PM 47.3°F8.5°C 38.7°F3.7°C 72% 1.0 mph NW1.6 kmh NW -- 29.49 in998.6 mb - 0.00 in0.0 mm 0.02 in0.5 mm
12:40 PM 47.4°F8.6°C 38.8°F3.8°C 72% Calm Calm 3.0 mph4.8 kmh 29.49 in998.6 mb - 0.00 in0.0 mm 0.02 in0.5 mm
12:30 PM 47.4°F8.6°C 38.4°F3.6°C 71% 2.0 mph WNW3.2 kmh WNW 8.0 mph12.9 kmh 29.49 in998.6 mb - 0.01 in0.3 mm 0.02 in0.5 mm
12:20 PM 47.4°F8.6°C 38.5°F3.6°C 71% Calm Calm -- 29.50 in999.0 mb - 0.00 in0.0 mm 0.01 in0.3 mm
12:10 PM 47.3°F8.5°C 38.8°F3.8°C 72% Calm Calm -- 29.50 in999.0 mb - 0.00 in0.0 mm 0.01 in0.3 mm
12:00 PM 46.9°F8.3°C 38.3°F3.5°C 72% 6.0 mph SW9.7 kmh SW 7.0 mph11.3 kmh 29.51 in999.3 mb - 0.00 in0.0 mm 0.01 in0.3 mm
11:50 AM 46.9°F8.3°C 38.3°F3.5°C 72% 6.0 mph WSW9.7 kmh WSW 13.0 mph20.9 kmh 29.50 in999.0 mb - 0.00 in0.0 mm 0.01 in0.3 mm
11:40 AM 47.3°F8.5°C 39.1°F3.9°C 73% 6.0 mph WNW9.7 kmh WNW 7.0 mph11.3 kmh 29.51 in999.3 mb - 0.00 in0.0 mm 0.01 in0.3 mm
11:30 AM 47.0°F8.3°C 39.5°F4.2°C 75% 8.0 mph WSW12.9 kmh WSW 17.0 mph27.4 kmh 29.51 in999.3 mb - 0.00 in0.0 mm 0.01 in0.3 mm
11:20 AM 45.8°F7.7°C 38.3°F3.5°C 75% 8.0 mph WNW12.9 kmh WNW 23.0 mph37.0 kmh 29.51 in999.3 mb - 0.00 in0.0 mm 0.01 in0.3 mm
11:10 AM 46.3°F7.9°C 38.1°F3.4°C 73% 7.0 mph SW11.3 kmh SW 12.0 mph19.3 kmh 29.52 in999.7 mb - 0.01 in0.3 mm 0.01 in0.3 mm
11:00 AM 47.3°F8.5°C 36.9°F2.7°C 67% 12.0 mph SW19.3 kmh SW 22.0 mph35.4 kmh 29.52 in999.7 mb - 0.01 in0.3 mm 0.01 in0.3 mm
10:50 AM 47.2°F8.4°C 36.8°F2.7°C 67% 2.0 mph WSW3.2 kmh WSW 14.0 mph22.5 kmh 29.51 in999.3 mb - 0.00 in0.0 mm 0.00 in0.0 mm
10:40 AM 47.4°F8.6°C 35.4°F1.9°C 63% 9.0 mph WSW14.5 kmh WSW 14.0 mph22.5 kmh 29.51 in999.3 mb - 0.00 in0.0 mm 0.00 in0.0 mm
10:30 AM 47.8°F8.8°C 36.2°F2.3°C 64% 5.0 mph SW8.0 kmh SW 14.0 mph22.5 kmh 29.51 in999.3 mb - 0.00 in0.0 mm 0.00 in0.0 mm
10:20 AM 47.6°F8.7°C 36.0°F2.2°C 64% 5.0 mph SW8.0 kmh SW 17.0 mph27.4 kmh 29.51 in999.3 mb - 0.00 in0.0 mm 0.00 in0.0 mm
10:10 AM 48.2°F9.0°C 35.8°F2.1°C 62% 9.0 mph W14.5 kmh W 21.0 mph33.8 kmh 29.51 in999.3 mb - 0.00 in0.0 mm 0.00 in0.0 mm
10:00 AM 49.4°F9.7°C 35.2°F1.8°C 58% 6.0 mph WSW9.7 kmh WSW 12.0 mph19.3 kmh 29.51 in999.3 mb - 0.00 in0.0 mm 0.00 in0.0 mm
09:50 AM 49.9°F9.9°C 34.8°F1.6°C 56% 13.0 mph WSW20.9 kmh WSW 17.0 mph27.4 kmh 29.51 in999.3 mb - 0.00 in0.0 mm 0.00 in0.0 mm
09:40 AM 49.2°F9.6°C 35.4°F1.9°C 59% 8.0 mph WSW12.9 kmh WSW 12.0 mph19.3 kmh 29.51 in999.3 mb - 0.00 in0.0 mm 0.00 in0.0 mm
09:30 AM 48.5°F9.2°C 36.5°F2.5°C 63% 9.0 mph WSW14.5 kmh WSW 24.0 mph38.6 kmh 29.52 in999.7 mb - 0.00 in0.0 mm 0.00 in0.0 mm
09:20 AM 48.2°F9.0°C 36.6°F2.6°C 64% 12.0 mph SW19.3 kmh SW 16.0 mph25.7 kmh 29.51 in999.3 mb - 0.00 in0.0 mm 0.00 in0.0 mm
09:10 AM 47.7°F8.7°C 37.3°F2.9°C 67% 6.0 mph SW9.7 kmh SW 15.0 mph24.1 kmh 29.52 in999.7 mb - 0.00 in0.0 mm 0.00 in0.0 mm
09:00 AM 47.2°F8.4°C 36.8°F2.7°C 67% 5.0 mph SW8.0 kmh SW 20.0 mph32.2 kmh 29.52 in999.7 mb - 0.00 in0.0 mm 0.00 in0.0 mm
08:50 AM 47.0°F8.3°C 36.9°F2.7°C 68% 6.0 mph W9.7 kmh W 12.0 mph19.3 kmh 29.52 in999.7 mb - 0.00 in0.0 mm 0.00 in0.0 mm
08:40 AM 46.2°F7.9°C 36.2°F2.3°C 68% 2.0 mph WSW3.2 kmh WSW 7.0 mph11.3 kmh 29.52 in999.7 mb - 0.00 in0.0 mm 0.00 in0.0 mm
08:30 AM 46.1°F7.8°C 36.1°F2.3°C 68% 5.0 mph WSW8.0 kmh WSW 12.0 mph19.3 kmh 29.52 in999.7 mb - 0.00 in0.0 mm 0.00 in0.0 mm
08:20 AM 46.2°F7.9°C 36.9°F2.7°C 70% 9.0 mph WSW14.5 kmh WSW 14.0 mph22.5 kmh 29.52 in999.7 mb - 0.00 in0.0 mm 0.00 in0.0 mm
08:10 AM 45.4°F7.4°C 37.2°F2.9°C 73% 7.0 mph SW11.3 kmh SW 16.0 mph25.7 kmh 29.52 in999.7 mb - 0.00 in0.0 mm 0.00 in0.0 mm
08:00 AM 45.0°F7.2°C 36.6°F2.6°C 72% 1.0 mph W1.6 kmh W 8.0 mph12.9 kmh 29.51 in999.3 mb - 0.00 in0.0 mm 0.00 in0.0 mm
07:50 AM 45.0°F7.2°C 36.5°F2.5°C 72% 2.0 mph W3.2 kmh W 3.0 mph4.8 kmh 29.51 in999.3 mb - 0.00 in0.0 mm 0.00 in0.0 mm
07:40 AM 45.1°F7.3°C 37.6°F3.1°C 75% 5.0 mph WSW8.0 kmh WSW 15.0 mph24.1 kmh 29.51 in999.3 mb - 0.00 in0.0 mm 0.00 in0.0 mm
07:30 AM 45.1°F7.3°C 38.3°F3.5°C 77% 3.0 mph WSW4.8 kmh WSW 5.0 mph8.0 kmh 29.51 in999.3 mb - 0.00 in0.0 mm 0.00 in0.0 mm
07:20 AM 45.0°F7.2°C 38.6°F3.7°C 78% 2.0 mph W3.2 kmh W 5.0 mph8.0 kmh 29.50 in999.0 mb - 0.00 in0.0 mm 0.00 in0.0 mm
07:10 AM 45.0°F7.2°C 38.9°F3.8°C 79% 3.0 mph WSW4.8 kmh WSW 7.0 mph11.3 kmh 29.50 in999.0 mb - 0.00 in0.0 mm 0.00 in0.0 mm
07:00 AM 45.0°F7.2°C 39.2°F4.0°C 80% 5.0 mph SW8.0 kmh SW 8.0 mph12.9 kmh 29.50 in999.0 mb - 0.00 in0.0 mm 0.00 in0.0 mm
06:50 AM 45.1°F7.3°C 39.3°F4.1°C 80% 2.0 mph WSW3.2 kmh WSW 3.0 mph4.8 kmh 29.50 in999.0 mb - 0.00 in0.0 mm 0.00 in0.0 mm
06:40 AM 45.1°F7.3°C 39.3°F4.1°C 80% Calm Calm -- 29.49 in998.6 mb 0.00 in0.0 mm 0.00 in0.0 mm 0.00 in0.0 mm
06:30 AM 45.1°F7.3°C 39.3°F4.1°C 80% Calm Calm -- 29.50 in999.0 mb 0.00 in0.0 mm 0.00 in0.0 mm 0.00 in0.0 mm
06:20 AM 45.1°F7.3°C 39.3°F4.1°C 80% Calm Calm -- 29.50 in999.0 mb 0.00 in0.0 mm 0.00 in0.0 mm 0.00 in0.0 mm
06:10 AM 45.2°F7.3°C 39.1°F3.9°C 79% Calm Calm 3.0 mph4.8 kmh 29.50 in999.0 mb 0.00 in0.0 mm 0.00 in0.0 mm 0.00 in0.0 mm
06:00 AM 45.2°F7.3°C 39.1°F3.9°C 79% Calm Calm -- 29.50 in999.0 mb 0.00 in0.0 mm 0.00 in0.0 mm 0.00 in0.0 mm
05:50 AM 45.2°F7.3°C 39.1°F3.9°C 79% 1.0 mph WSW1.6 kmh WSW 3.0 mph4.8 kmh 29.50 in999.0 mb 0.00 in0.0 mm 0.00 in0.0 mm 0.00 in0.0 mm
05:40 AM 45.2°F7.3°C 39.1°F3.9°C 79% 5.0 mph SW8.0 kmh SW 7.0 mph11.3 kmh 29.50 in999.0 mb 0.00 in0.0 mm 0.00 in0.0 mm 0.00 in0.0 mm
05:30 AM 45.3°F7.4°C 39.2°F4.0°C 79% 1.0 mph WSW1.6 kmh WSW 6.0 mph9.7 kmh 29.50 in999.0 mb 0.00 in0.0 mm 0.00 in0.0 mm 0.00 in0.0 mm
05:20 AM 45.3°F7.4°C 39.2°F4.0°C 79% 6.0 mph WSW9.7 kmh WSW 10.0 mph16.1 kmh 29.50 in999.0 mb 0.00 in0.0 mm 0.00 in0.0 mm 0.00 in0.0 mm
05:10 AM 45.3°F7.4°C 39.2°F4.0°C 79% 1.0 mph WSW1.6 kmh WSW 5.0 mph8.0 kmh 29.50 in999.0 mb 0.00 in0.0 mm 0.00 in0.0 mm 0.00 in0.0 mm
05:00 AM 45.3°F7.4°C 39.2°F4.0°C 79% 1.0 mph SW1.6 kmh SW -- 29.50 in999.0 mb 0.00 in0.0 mm 0.00 in0.0 mm 0.00 in0.0 mm
04:50 AM 45.1°F7.3°C 38.6°F3.7°C 78% 3.0 mph W4.8 kmh W 5.0 mph8.0 kmh 29.50 in999.0 mb 0.00 in0.0 mm 0.00 in0.0 mm 0.00 in0.0 mm
04:40 AM 44.8°F7.1°C 38.0°F3.3°C 77% 3.0 mph SW4.8 kmh SW 3.0 mph4.8 kmh 29.50 in999.0 mb 0.00 in0.0 mm 0.00 in0.0 mm 0.00 in0.0 mm
04:30 AM 44.8°F7.1°C 37.3°F2.9°C 75% 1.0 mph WSW1.6 kmh WSW -- 29.50 in999.0 mb 0.00 in0.0 mm 0.00 in0.0 mm 0.00 in0.0 mm
04:20 AM 45.0°F7.2°C 37.2°F2.9°C 74% Calm Calm -- 29.50 in999.0 mb 0.00 in0.0 mm 0.00 in0.0 mm 0.00 in0.0 mm
04:10 AM 45.4°F7.4°C 37.6°F3.1°C 74% 1.0 mph WSW1.6 kmh WSW 3.0 mph4.8 kmh 29.50 in999.0 mb 0.00 in0.0 mm 0.00 in0.0 mm 0.00 in0.0 mm
03:50 AM 45.9°F7.7°C 37.7°F3.2°C 73% Calm Calm -- 29.50 in999.0 mb 0.00 in0.0 mm 0.00 in0.0 mm 0.00 in0.0 mm
03:40 AM 46.2°F7.9°C 37.7°F3.2°C 72% Calm Calm -- 29.51 in999.3 mb 0.00 in0.0 mm 0.00 in0.0 mm 0.00 in0.0 mm
03:30 AM 46.4°F8.0°C 37.9°F3.3°C 72% 1.0 mph WSW1.6 kmh WSW 5.0 mph8.0 kmh 29.51 in999.3 mb 0.00 in0.0 mm 0.00 in0.0 mm 0.00 in0.0 mm
03:20 AM 46.4°F8.0°C 37.9°F3.3°C 72% 3.0 mph WSW4.8 kmh WSW 7.0 mph11.3 kmh 29.51 in999.3 mb 0.00 in0.0 mm 0.00 in0.0 mm 0.00 in0.0 mm
03:10 AM 46.4°F8.0°C 37.9°F3.3°C 72% Calm Calm 7.0 mph11.3 kmh 29.51 in999.3 mb 0.00 in0.0 mm 0.00 in0.0 mm 0.00 in0.0 mm
03:00 AM 46.4°F8.0°C 37.9°F3.3°C 72% 3.0 mph WNW4.8 kmh WNW 7.0 mph11.3 kmh 29.50 in999.0 mb 0.00 in0.0 mm 0.00 in0.0 mm 0.00 in0.0 mm
02:30 AM 46.7°F8.2°C 38.5°F3.6°C 73% 5.0 mph W8.0 kmh W 10.0 mph16.1 kmh 29.51 in999.3 mb 0.00 in0.0 mm 0.00 in0.0 mm 0.00 in0.0 mm
02:20 AM 46.8°F8.2°C 38.6°F3.7°C 73% 5.0 mph W8.0 kmh W 12.0 mph19.3 kmh 29.51 in999.3 mb 0.00 in0.0 mm 0.00 in0.0 mm 0.00 in0.0 mm
02:10 AM 46.9°F8.3°C 38.3°F3.5°C 72% 10.0 mph WSW16.1 kmh WSW 16.0 mph25.7 kmh 29.51 in999.3 mb 0.00 in0.0 mm 0.00 in0.0 mm 0.00 in0.0 mm
02:00 AM 47.0°F8.3°C 38.8°F3.8°C 73% 5.0 mph WSW8.0 kmh WSW 20.0 mph32.2 kmh 29.51 in999.3 mb 0.00 in0.0 mm 0.00 in0.0 mm 0.00 in0.0 mm
01:50 AM 47.3°F8.5°C 39.1°F3.9°C 73% 3.0 mph W4.8 kmh W 7.0 mph11.3 kmh 29.51 in999.3 mb 0.00 in0.0 mm 0.00 in0.0 mm 0.00 in0.0 mm
01:40 AM 47.7°F8.7°C 39.8°F4.3°C 74% 6.0 mph SW9.7 kmh SW 12.0 mph19.3 kmh 29.50 in999.0 mb 0.00 in0.0 mm 0.00 in0.0 mm 0.00 in0.0 mm
01:30 AM 47.9°F8.8°C 40.0°F4.4°C 74% 6.0 mph W9.7 kmh W 12.0 mph19.3 kmh 29.50 in999.0 mb 0.00 in0.0 mm 0.00 in0.0 mm 0.00 in0.0 mm
01:10 AM 48.7°F9.3°C 40.4°F4.7°C 73% 3.0 mph W4.8 kmh W 5.0 mph8.0 kmh 29.49 in998.6 mb 0.00 in0.0 mm 0.00 in0.0 mm 0.00 in0.0 mm
01:00 AM 49.3°F9.6°C 41.7°F5.4°C 75% 6.0 mph WSW9.7 kmh WSW 12.0 mph19.3 kmh 29.48 in998.3 mb 0.00 in0.0 mm 0.00 in0.0 mm 0.00 in0.0 mm
12:50 AM 50.0°F10.0°C 43.4°F6.3°C 78% 6.0 mph W9.7 kmh W 21.0 mph33.8 kmh 29.48 in998.3 mb 0.00 in0.0 mm 0.00 in0.0 mm 0.00 in0.0 mm
12:40 AM 50.7°F10.4°C 44.7°F7.1°C 80% 7.0 mph WNW11.3 kmh WNW 14.0 mph22.5 kmh 29.46 in997.6 mb 0.00 in0.0 mm 0.00 in0.0 mm 0.00 in0.0 mm
12:30 AM 51.2°F10.7°C 45.2°F7.3°C 80% 7.0 mph W11.3 kmh W 14.0 mph22.5 kmh 29.45 in997.3 mb 0.00 in0.0 mm 0.00 in0.0 mm 0.00 in0.0 mm
12:20 AM 52.0°F11.1°C 45.7°F7.6°C 79% 10.0 mph WNW16.1 kmh WNW 18.0 mph29.0 kmh 29.45 in997.3 mb 0.00 in0.0 mm 0.00 in0.0 mm 0.00 in0.0 mm
12:10 AM 52.8°F11.6°C 46.5°F8.1°C 79% 2.0 mph WNW3.2 kmh WNW 22.0 mph35.4 kmh 29.45 in997.3 mb 0.00 in0.0 mm 0.00 in0.0 mm 0.00 in0.0 mm
12:00 AM 52.9°F11.6°C 46.6°F8.1°C 79% 3.0 mph W4.8 kmh W 6.0 mph9.7 kmh 29.44 in997.0 mb 0.00 in0.0 mm 0.00 in0.0 mm 0.00 in0.0 mm